Time;durP1;ratioP1;P1;durP2;ratioP2;P2;SDS_P1;SDS_P2;PMS_P1;PMS_P2;Temp;Humidity;BMP_temperature;BMP_pressure;BME280_temperature;BME280_humidity;BME280_pressure;Samples;Min_cycle;Max_cycle;Signal;HPM_P1;HPM_P2
2021/04/17 00:01:38;;;;;;;9.77;8.80;;;6.10;91.10;;;;;;5057210;28;20471;-86
2021/04/17 00:04:05;;;;;;;11.30;10.20;;;6.20;91.00;;;;;;5058045;28;20462;-86
2021/04/17 00:06:32;;;;;;;10.20;9.20;;;6.20;90.90;;;;;;5056525;28;20455;-86
2021/04/17 00:08:59;;;;;;;10.40;9.40;;;6.10;91.00;;;;;;5056449;28;20477;-86
2021/04/17 00:11:27;;;;;;;11.23;10.23;;;6.20;91.00;;;;;;5056566;28;20460;-86
2021/04/17 00:13:56;;;;;;;11.10;10.00;;;6.20;90.80;;;;;;5068963;28;20475;-86
2021/04/17 00:16:22;;;;;;;12.20;10.47;;;6.20;90.90;;;;;;5075658;28;20512;-85
2021/04/17 00:18:49;;;;;;;13.20;10.70;;;6.20;90.90;;;;;;5079564;28;20449;-85
2021/04/17 00:21:15;;;;;;;10.57;9.53;;;6.20;90.90;;;;;;5072859;28;20456;-85
2021/04/17 00:23:41;;;;;;;10.80;9.80;;;6.20;90.90;;;;;;5072508;28;20440;-86
2021/04/17 00:26:08;;;;;;;10.80;9.80;;;6.20;90.90;;;;;;5071569;28;20453;-86
2021/04/17 00:28:35;;;;;;;11.30;10.20;;;6.10;91.00;;;;;;5062232;28;20478;-86
2021/04/17 00:31:01;;;;;;;11.43;10.30;;;6.10;91.10;;;;;;5057029;28;20453;-85
2021/04/17 00:33:27;;;;;;;12.20;11.03;;;6.10;91.00;;;;;;5057387;28;20457;-86
2021/04/17 00:35:53;;;;;;;11.00;9.90;;;6.10;91.10;;;;;;5056536;28;20489;-86
2021/04/17 00:38:20;;;;;;;11.50;10.40;;;6.10;91.20;;;;;;5056069;28;20467;-86
2021/04/17 00:40:46;;;;;;;11.10;10.10;;;6.10;91.30;;;;;;5059567;28;20843;-86
2021/04/17 00:43:13;;;;;;;11.13;9.97;;;6.10;91.40;;;;;;5056460;28;20478;-86
2021/04/17 00:45:40;;;;;;;11.30;10.30;;;6.10;91.40;;;;;;5055839;28;20459;-86
2021/04/17 00:48:07;;;;;;;14.00;11.03;;;6.20;91.40;;;;;;5057887;28;22504;-86
2021/04/17 00:50:33;;;;;;;11.83;10.60;;;6.20;91.40;;;;;;5067892;28;20428;-86
2021/04/17 00:53:00;;;;;;;11.90;10.70;;;6.30;91.40;;;;;;5074950;28;20424;-85
2021/04/17 00:55:26;;;;;;;11.33;10.17;;;6.20;91.30;;;;;;5072494;28;20512;-85
2021/04/17 00:57:52;;;;;;;11.73;10.57;;;6.30;91.30;;;;;;5073088;28;20475;-85
2021/04/17 01:00:23;;;;;;;11.63;10.53;;;6.30;91.30;;;;;;5069621;28;20452;-85
2021/04/17 01:02:58;;;;;;;12.50;11.20;;;6.20;91.40;;;;;;5058485;28;20510;-85
2021/04/17 01:05:28;;;;;;;12.07;10.87;;;6.30;91.40;;;;;;5059078;28;20505;-85
2021/04/17 01:07:58;;;;;;;11.23;10.17;;;6.30;91.40;;;;;;5057785;28;20503;-85
2021/04/17 01:10:33;;;;;;;11.13;10.13;;;6.30;91.50;;;;;;5068664;28;20473;-85
2021/04/17 01:13:37;;;;;;;11.90;10.40;;;6.30;91.60;;;;;;5056011;28;20451;-84
2021/04/17 01:16:04;;;;;;;10.83;9.90;;;6.30;91.50;;;;;;5056042;28;20475;-85
2021/04/17 01:18:33;;;;;;;12.83;9.90;;;6.20;91.50;;;;;;5055153;28;20468;-85
2021/04/17 01:21:01;;;;;;;11.37;10.33;;;6.30;91.50;;;;;;5055300;28;20456;-85
2021/04/17 01:23:33;;;;;;;12.20;11.00;;;6.30;91.40;;;;;;5055836;28;20846;-85
2021/04/17 01:26:02;;;;;;;12.07;10.73;;;6.30;91.50;;;;;;5055908;28;20445;-86
2021/04/17 01:28:31;;;;;;;12.47;11.27;;;6.30;91.50;;;;;;5058788;28;20995;-86
2021/04/17 01:30:58;;;;;;;11.30;10.20;;;6.30;91.60;;;;;;5057948;28;20429;-85
2021/04/17 01:33:27;;;;;;;10.80;9.70;;;6.30;91.60;;;;;;5063471;28;20440;-85
2021/04/17 01:35:56;;;;;;;12.63;9.80;;;6.20;91.70;;;;;;5067166;28;20484;-85
2021/04/17 01:38:25;;;;;;;12.80;11.50;;;6.20;91.70;;;;;;5069184;28;20456;-86
2021/04/17 01:40:56;;;;;;;11.17;10.10;;;6.20;91.90;;;;;;5067398;28;20442;-86
2021/04/17 01:43:26;;;;;;;12.37;10.93;;;6.10;91.90;;;;;;5070082;28;20449;-86
2021/04/17 01:45:57;;;;;;;12.93;10.77;;;6.10;92.10;;;;;;5055090;28;20995;-86
2021/04/17 01:48:27;;;;;;;11.90;10.77;;;6.00;92.20;;;;;;5058508;28;20468;-85
2021/04/17 01:50:54;;;;;;;13.30;11.40;;;6.00;92.30;;;;;;5076175;28;20447;-86
2021/04/17 01:53:24;;;;;;;13.93;12.13;;;5.90;92.50;;;;;;5072569;28;20456;-86
2021/04/17 01:55:52;;;;;;;12.60;11.30;;;5.90;92.80;;;;;;5057015;28;20480;-85
2021/04/17 01:58:22;;;;;;;13.00;11.80;;;5.90;93.10;;;;;;5059447;28;20589;-86
2021/04/17 02:00:53;;;;;;;13.03;11.40;;;5.80;93.20;;;;;;5055667;28;20455;-86
2021/04/17 02:03:19;;;;;;;14.80;12.70;;;5.80;93.40;;;;;;5054492;28;20452;-86
2021/04/17 02:05:47;;;;;;;12.13;10.93;;;5.80;93.60;;;;;;5054343;28;20513;-86
2021/04/17 02:08:14;;;;;;;12.73;11.50;;;5.70;93.70;;;;;;5055246;28;20475;-86
2021/04/17 02:10:40;;;;;;;15.70;12.47;;;5.80;94.00;;;;;;5061906;28;20425;-85
2021/04/17 02:13:07;;;;;;;13.17;11.80;;;5.80;94.10;;;;;;5057747;28;20440;-86
2021/04/17 02:15:34;;;;;;;13.77;12.30;;;5.80;94.00;;;;;;5055339;28;20486;-86
2021/04/17 02:18:05;;;;;;;13.40;12.20;;;5.80;94.00;;;;;;5067874;28;21004;-85
2021/04/17 02:20:35;;;;;;;12.60;11.40;;;5.80;94.10;;;;;;5067258;28;20445;-85
2021/04/17 02:23:02;;;;;;;13.37;11.17;;;5.80;94.20;;;;;;5066203;28;20446;-85
2021/04/17 02:25:28;;;;;;;12.87;11.57;;;5.90;94.20;;;;;;5057108;28;20444;-85
2021/04/17 02:27:55;;;;;;;12.83;11.63;;;5.80;94.20;;;;;;5055338;28;20471;-85
2021/04/17 02:30:22;;;;;;;13.40;12.10;;;5.80;94.70;;;;;;5060708;28;20477;-85
2021/04/17 02:32:48;;;;;;;14.00;12.50;;;5.80;94.50;;;;;;5061577;28;20462;-85
2021/04/17 02:35:16;;;;;;;13.60;12.23;;;5.80;94.70;;;;;;5062174;28;20472;-85
2021/04/17 02:37:42;;;;;;;14.67;13.27;;;5.70;94.70;;;;;;5060566;28;20468;-85
2021/04/17 02:40:09;;;;;;;12.67;11.10;;;5.70;94.90;;;;;;5061357;28;20431;-86
2021/04/17 02:42:35;;;;;;;14.90;13.57;;;5.70;95.20;;;;;;5061273;28;20458;-85
2021/04/17 02:45:01;;;;;;;14.43;12.60;;;5.70;95.40;;;;;;5062373;28;20914;-85
2021/04/17 02:47:28;;;;;;;14.90;13.40;;;5.70;95.50;;;;;;5061233;28;20824;-85
2021/04/17 02:49:54;;;;;;;15.10;13.07;;;5.70;95.60;;;;;;5062336;28;20501;-85
2021/04/17 02:52:21;;;;;;;14.73;13.23;;;5.70;95.60;;;;;;5064132;28;20459;-85
2021/04/17 02:54:47;;;;;;;14.43;13.00;;;5.70;96.10;;;;;;5069446;28;20959;-86
2021/04/17 02:57:14;;;;;;;13.97;12.60;;;5.70;95.80;;;;;;5068376;28;20488;-86
2021/04/17 02:59:40;;;;;;;16.47;14.30;;;5.80;95.80;;;;;;5065257;28;20484;-85
2021/04/17 03:02:06;;;;;;;14.47;12.97;;;5.80;95.70;;;;;;5065192;28;20443;-86
2021/04/17 03:04:33;;;;;;;14.77;13.17;;;5.80;95.90;;;;;;5060301;28;20458;-86
2021/04/17 03:06:59;;;;;;;16.50;14.17;;;5.80;96.00;;;;;;5060730;28;20487;-86
2021/04/17 03:09:26;;;;;;;16.73;14.27;;;5.90;96.20;;;;;;5064318;28;20951;-85
2021/04/17 03:11:52;;;;;;;14.27;12.83;;;5.80;96.00;;;;;;5075602;28;20466;-86
2021/04/17 03:14:19;;;;;;;14.47;13.17;;;5.70;96.20;;;;;;5072697;28;20435;-86
2021/04/17 03:16:45;;;;;;;15.60;14.20;;;5.70;96.50;;;;;;5062605;28;20494;-86
2021/04/17 03:19:11;;;;;;;15.33;13.83;;;5.70;96.60;;;;;;5062451;28;20447;-86
2021/04/17 03:21:38;;;;;;;15.70;14.20;;;5.70;96.80;;;;;;5061415;28;20546;-85
2021/04/17 03:24:04;;;;;;;15.33;13.87;;;5.80;96.90;;;;;;5069551;28;20423;-86
2021/04/17 03:26:32;;;;;;;14.73;13.20;;;5.80;97.10;;;;;;5076749;28;20439;-86
2021/04/17 03:28:58;;;;;;;15.47;14.00;;;5.80;97.10;;;;;;5064924;28;20466;-86
2021/04/17 03:31:24;;;;;;;15.23;13.60;;;5.80;97.10;;;;;;5065529;28;20451;-86
2021/04/17 03:33:52;;;;;;;17.70;14.70;;;5.80;97.10;;;;;;5064203;28;20462;-86
2021/04/17 03:36:19;;;;;;;16.10;14.13;;;5.90;97.10;;;;;;5066361;28;20480;-87
2021/04/17 03:38:46;;;;;;;15.17;13.77;;;5.90;97.00;;;;;;5063520;28;20483;-84
2021/04/17 03:41:12;;;;;;;15.70;14.13;;;5.90;96.90;;;;;;5060914;28;20471;-86
2021/04/17 03:43:42;;;;;;;16.60;14.93;;;5.90;96.90;;;;;;5066279;28;20456;-87
2021/04/17 03:46:08;;;;;;;17.53;15.70;;;6.00;96.90;;;;;;5074176;28;20459;-86
2021/04/17 03:48:35;;;;;;;16.63;14.93;;;6.00;96.90;;;;;;5075933;28;20472;-86
2021/04/17 03:51:01;;;;;;;16.40;14.90;;;6.00;96.90;;;;;;5060099;28;20464;-86
2021/04/17 03:53:27;;;;;;;15.50;14.10;;;6.00;96.90;;;;;;5069696;28;20863;-86
2021/04/17 03:55:54;;;;;;;17.13;15.43;;;5.90;96.90;;;;;;5076444;28;20486;-86
2021/04/17 03:58:20;;;;;;;15.93;14.43;;;5.90;96.90;;;;;;5066530;28;20487;-86
2021/04/17 04:00:47;;;;;;;16.40;14.80;;;5.80;96.90;;;;;;5064441;28;20471;-86
2021/04/17 04:03:16;;;;;;;18.53;16.77;;;5.80;97.20;;;;;;5072610;28;20515;-86
2021/04/17 04:05:42;;;;;;;16.37;14.67;;;5.70;97.20;;;;;;5059557;28;20468;-86
2021/04/17 04:08:09;;;;;;;20.53;17.47;;;5.60;97.50;;;;;;5059560;28;20978;-86
2021/04/17 04:10:35;;;;;;;16.80;15.13;;;5.50;97.90;;;;;;5059435;28;20440;-86
2021/04/17 04:13:01;;;;;;;16.67;15.07;;;5.40;98.20;;;;;;5058908;28;20440;-84
2021/04/17 04:15:27;;;;;;;18.07;16.27;;;5.50;98.70;;;;;;5066580;28;20490;-85
2021/04/17 04:17:54;;;;;;;16.00;14.43;;;5.50;98.70;;;;;;5059068;28;20451;-87
2021/04/17 04:20:21;;;;;;;16.87;15.17;;;5.50;98.90;;;;;;5071844;28;20444;-86
2021/04/17 04:22:47;;;;;;;17.10;15.30;;;5.50;98.90;;;;;;5075348;28;20508;-86
2021/04/17 04:25:14;;;;;;;17.30;15.47;;;5.50;98.90;;;;;;5062895;28;20452;-86
2021/04/17 04:27:40;;;;;;;17.27;15.57;;;5.60;98.90;;;;;;5061786;28;20460;-86
2021/04/17 04:30:09;;;;;;;17.20;15.53;;;5.60;98.90;;;;;;5059883;28;20444;-86
2021/04/17 04:32:35;;;;;;;16.33;14.73;;;5.60;98.80;;;;;;5066724;28;20452;-86
2021/04/17 04:35:04;;;;;;;18.53;16.47;;;5.60;98.80;;;;;;5058078;28;20929;-86
2021/04/17 04:37:30;;;;;;;20.20;18.30;;;5.60;99.00;;;;;;5066101;28;20478;-86
2021/04/17 04:39:56;;;;;;;23.93;16.23;;;5.70;98.90;;;;;;5059334;28;20921;-86
2021/04/17 04:42:27;;;;;;;16.00;14.40;;;5.70;98.90;;;;;;5057672;28;20444;-87
2021/04/17 04:44:53;;;;;;;16.90;15.20;;;5.70;98.90;;;;;;5058760;28;20520;-86
2021/04/17 04:47:20;;;;;;;17.00;15.30;;;5.80;98.90;;;;;;5060439;28;20979;-86
2021/04/17 04:49:46;;;;;;;17.30;15.50;;;5.80;98.80;;;;;;5069029;28;20424;-85
2021/04/17 04:52:13;;;;;;;17.87;15.97;;;5.80;98.70;;;;;;5069424;28;20449;-85
2021/04/17 04:54:39;;;;;;;17.87;16.07;;;5.80;98.80;;;;;;5060445;28;20447;-86
2021/04/17 04:57:07;;;;;;;18.83;14.70;;;5.80;98.80;;;;;;5061595;28;20482;-87
2021/04/17 04:59:33;;;;;;;20.13;15.83;;;5.90;98.60;;;;;;5067777;28;20440;-87
2021/04/17 05:02:04;;;;;;;18.63;16.63;;;5.90;98.40;;;;;;5046468;28;20830;-85
2021/04/17 05:04:30;;;;;;;18.53;16.70;;;5.90;98.30;;;;;;5051625;28;20479;-87
2021/04/17 05:06:57;;;;;;;20.73;17.13;;;5.90;98.00;;;;;;5048798;28;20458;-86
2021/04/17 05:09:24;;;;;;;18.90;16.90;;;6.00;97.90;;;;;;5046441;28;20531;-86
2021/04/17 05:11:51;;;;;;;19.53;17.33;;;6.00;97.80;;;;;;5049837;28;20456;-86
2021/04/17 05:14:17;;;;;;;18.37;16.57;;;6.00;97.70;;;;;;5045560;28;20503;-86
2021/04/17 05:16:44;;;;;;;16.97;15.03;;;6.10;97.50;;;;;;5042974;28;20495;-86
2021/04/17 05:19:10;;;;;;;16.97;15.30;;;6.10;97.20;;;;;;5056433;28;20447;-85
2021/04/17 05:21:36;;;;;;;18.33;16.33;;;6.20;97.00;;;;;;5065829;28;20435;-85
2021/04/17 05:24:03;;;;;;;16.90;15.20;;;6.20;96.30;;;;;;5079354;28;20425;-86
2021/04/17 05:26:30;;;;;;;17.40;15.60;;;6.20;96.40;;;;;;5078614;28;20429;-86
2021/04/17 05:28:58;;;;;;;17.00;15.30;;;6.30;96.30;;;;;;5062372;28;20462;-86
2021/04/17 05:31:24;;;;;;;17.40;15.70;;;6.40;96.40;;;;;;5064556;28;20454;-86
2021/04/17 05:33:50;;;;;;;18.03;16.20;;;6.50;96.30;;;;;;5065596;28;20431;-86
2021/04/17 05:36:16;;;;;;;18.30;16.20;;;6.60;96.10;;;;;;5059012;28;20476;-86
2021/04/17 05:41:25;;;;;;;17.43;15.83;;;6.80;95.10;;;;;;5055193;28;20849;-84
2021/04/17 05:43:52;;;;;;;18.23;16.33;;;6.90;94.80;;;;;;5060986;28;20436;-86
2021/04/17 05:46:18;;;;;;;16.47;14.83;;;7.00;94.60;;;;;;5050796;28;20501;-86
2021/04/17 05:48:45;;;;;;;19.50;16.00;;;7.10;94.20;;;;;;5059881;28;20460;-87
2021/04/17 05:51:11;;;;;;;17.93;15.90;;;7.20;94.10;;;;;;5062278;28;20448;-86
2021/04/17 05:53:37;;;;;;;17.17;15.37;;;7.20;93.70;;;;;;5053893;28;20473;-87
2021/04/17 05:56:04;;;;;;;17.67;15.90;;;7.30;93.40;;;;;;5052241;28;20484;-85
2021/04/17 05:58:30;;;;;;;18.03;15.43;;;7.30;93.00;;;;;;5047459;28;20451;-85
2021/04/17 06:00:58;;;;;;;16.30;14.70;;;7.40;92.90;;;;;;5044220;28;20448;-89
2021/04/17 06:03:24;;;;;;;18.37;16.53;;;7.40;92.70;;;;;;5048691;28;20437;-88
2021/04/17 06:05:50;;;;;;;18.87;16.90;;;7.50;92.50;;;;;;5043220;28;20950;-85
2021/04/17 06:08:18;;;;;;;17.70;15.90;;;7.50;92.00;;;;;;5040791;28;20472;-84
2021/04/17 06:10:44;;;;;;;19.30;17.33;;;7.60;91.90;;;;;;5035846;28;20449;-85
2021/04/17 06:13:11;;;;;;;17.80;15.87;;;7.70;91.80;;;;;;5052842;28;20444;-85
2021/04/17 06:15:42;;;;;;;18.30;16.40;;;7.80;91.50;;;;;;5053051;28;20472;-85
2021/04/17 06:18:09;;;;;;;18.40;16.57;;;7.50;91.30;;;;;;5053487;28;20468;-86
2021/04/17 06:20:36;;;;;;;18.47;16.57;;;7.60;91.70;;;;;;5073747;28;20436;-86
2021/04/17 06:23:02;;;;;;;19.13;15.40;;;7.60;91.80;;;;;;5072344;28;20972;-86
2021/04/17 06:25:29;;;;;;;17.47;15.67;;;7.70;91.60;;;;;;5055306;28;20456;-86
2021/04/17 06:27:56;;;;;;;18.10;15.77;;;7.80;91.70;;;;;;5054954;28;21027;-87
2021/04/17 06:30:22;;;;;;;16.63;15.00;;;7.80;91.60;;;;;;5059666;28;20428;-85
2021/04/17 06:32:49;;;;;;;17.10;15.13;;;7.80;91.40;;;;;;5075213;28;20471;-85
2021/04/17 06:35:16;;;;;;;23.30;18.33;;;7.80;91.30;;;;;;5062815;28;20960;-87
2021/04/17 06:37:43;;;;;;;19.70;16.10;;;7.80;91.40;;;;;;5056419;28;20469;-86
2021/04/17 06:40:09;;;;;;;18.87;15.67;;;7.80;91.30;;;;;;5057515;28;20448;-86
2021/04/17 06:42:39;;;;;;;19.20;16.77;;;7.70;91.20;;;;;;5064596;28;20436;-85
2021/04/17 06:45:07;;;;;;;19.00;17.07;;;7.80;91.10;;;;;;5054261;28;20433;-85
2021/04/17 06:47:35;;;;;;;16.90;15.27;;;7.80;91.20;;;;;;5053816;28;20464;-85
2021/04/17 06:50:03;;;;;;;18.97;16.70;;;8.00;90.80;;;;;;5054522;28;20510;-86
2021/04/17 06:52:31;;;;;;;18.20;16.43;;;8.10;90.60;;;;;;5058713;28;20987;-85
2021/04/17 06:54:58;;;;;;;19.13;15.83;;;8.60;90.20;;;;;;5059916;28;20444;-87
2021/04/17 06:57:24;;;;;;;18.17;16.27;;;9.30;88.60;;;;;;5058420;28;20564;-86
2021/04/17 06:59:51;;;;;;;16.50;14.90;;;10.10;84.80;;;;;;5059501;28;20459;-86
2021/04/17 07:02:18;;;;;;;16.83;15.13;;;10.80;81.10;;;;;;5059244;28;20433;-87
2021/04/17 07:04:45;;;;;;;16.53;15.13;;;11.10;78.00;;;;;;5069158;28;20444;-86
2021/04/17 07:07:12;;;;;;;16.90;15.10;;;11.20;75.60;;;;;;5058845;28;20957;-86
2021/04/17 07:09:39;;;;;;;18.03;16.23;;;11.20;75.20;;;;;;5056940;28;20866;-86
2021/04/17 07:12:07;;;;;;;18.73;16.83;;;11.20;74.50;;;;;;5055820;28;20967;-86
2021/04/17 07:14:44;;;;;;;17.57;15.77;;;11.40;73.30;;;;;;5057342;28;20463;-86
2021/04/17 07:17:11;;;;;;;18.17;16.57;;;11.60;71.50;;;;;;5059153;28;20487;-85
2021/04/17 07:19:51;;;;;;;19.00;15.57;;;11.50;72.10;;;;;;5059232;28;20460;-85
2021/04/17 07:22:21;;;;;;;17.30;15.70;;;12.00;72.30;;;;;;5057954;28;20459;-85
2021/04/17 07:24:50;;;;;;;16.60;15.00;;;12.50;69.60;;;;;;5057932;28;20467;-85
2021/04/17 07:27:41;;;;;;;17.20;15.70;;;12.80;67.90;;;;;;5066509;28;20471;-86
2021/04/17 07:30:29;;;;;;;18.57;16.67;;;12.90;66.80;;;;;;5054525;28;20587;-86
2021/04/17 07:33:09;;;;;;;18.27;16.57;;;13.60;65.70;;;;;;5062762;28;20507;-86
2021/04/17 07:35:37;;;;;;;17.07;15.33;;;14.10;62.70;;;;;;5064684;28;20456;-85
2021/04/17 07:38:11;;;;;;;18.33;16.50;;;14.50;61.30;;;;;;5070080;28;20475;-86
2021/04/17 07:40:39;;;;;;;18.37;16.60;;;14.80;60.60;;;;;;5075146;28;20443;-87
2021/04/17 07:43:05;;;;;;;17.03;15.60;;;15.10;58.80;;;;;;5064159;28;20448;-87
2021/04/17 07:45:33;;;;;;;16.37;15.03;;;15.60;57.80;;;;;;5062649;28;20467;-83
2021/04/17 07:48:01;;;;;;;17.50;15.70;;;15.90;56.30;;;;;;5057012;28;20475;-86
2021/04/17 07:50:33;;;;;;;20.40;15.97;;;15.90;56.10;;;;;;5055401;28;20475;-86
2021/04/17 07:53:00;;;;;;;17.17;15.67;;;16.10;55.30;;;;;;5053458;28;20468;-85
2021/04/17 07:55:31;;;;;;;18.87;16.60;;;16.10;55.20;;;;;;5050038;28;20819;-87
2021/04/17 07:58:00;;;;;;;16.43;15.13;;;15.90;55.10;;;;;;5059218;28;20456;-87
2021/04/17 08:00:28;;;;;;;17.80;16.20;;;15.70;54.90;;;;;;5052981;28;20459;-85
2021/04/17 08:03:00;;;;;;;17.80;16.10;;;15.80;55.10;;;;;;5049950;28;20953;-87
2021/04/17 08:05:27;;;;;;;17.73;16.07;;;16.10;54.20;;;;;;5057378;28;20502;-84
2021/04/17 08:07:59;;;;;;;17.90;16.17;;;15.90;53.80;;;;;;5057158;28;20463;-87
2021/04/17 08:10:28;;;;;;;16.93;15.43;;;15.20;54.70;;;;;;5060480;28;20670;-88
2021/04/17 08:12:56;;;;;;;16.77;15.20;;;14.60;55.30;;;;;;5060123;28;20489;-86
2021/04/17 08:15:28;;;;;;;15.83;14.30;;;14.00;56.50;;;;;;5053328;28;20468;-86
2021/04/17 08:17:54;;;;;;;16.03;14.53;;;14.00;57.20;;;;;;5047437;28;21157;-87
2021/04/17 08:20:21;;;;;;;15.10;13.60;;;13.80;57.50;;;;;;5054911;28;20512;-86
2021/04/17 08:22:51;;;;;;;14.47;13.03;;;13.70;57.70;;;;;;5071694;28;20470;-87
2021/04/17 08:25:25;;;;;;;15.47;13.97;;;13.30;57.90;;;;;;5056748;28;20481;-88
2021/04/17 08:27:55;;;;;;;16.03;14.20;;;13.40;59.10;;;;;;5054798;28;20475;-86
2021/04/17 08:30:30;;;;;;;17.50;15.90;;;13.80;58.70;;;;;;5060689;28;20428;-87
2021/04/17 08:33:13;;;;;;;17.03;15.50;;;14.10;58.10;;;;;;5052159;28;20440;-87
2021/04/17 08:35:52;;;;;;;16.03;14.33;;;14.00;57.80;;;;;;5052001;28;20453;-87
2021/04/17 08:41:42;;;;;;;20.80;14.90;;;13.70;57.20;;;;;;5052632;28;20434;-88
2021/04/17 08:44:34;;;;;;;13.97;12.67;;;13.20;58.80;;;;;;5045545;28;20441;-87
2021/04/17 08:47:32;;;;;;;15.10;13.50;;;13.30;58.30;;;;;;5056112;28;20433;-87
2021/04/17 08:50:28;;;;;;;15.27;13.70;;;13.10;58.20;;;;;;5066499;28;20485;-86
2021/04/17 08:53:02;;;;;;;14.63;13.13;;;12.90;58.40;;;;;;5067622;28;20438;-87
2021/04/17 08:55:43;;;;;;;15.13;13.60;;;12.90;58.70;;;;;;5065187;28;20445;-87
2021/04/17 08:58:14;;;;;;;14.97;13.63;;;12.80;59.00;;;;;;5052555;28;20481;-86
2021/04/17 09:00:48;;;;;;;11.93;10.70;;;13.10;58.70;;;;;;5058266;28;20428;-87
2021/04/17 09:03:36;;;;;;;10.87;9.87;;;13.50;57.30;;;;;;5058822;28;20846;-86
2021/04/17 09:06:04;;;;;;;11.33;10.03;;;13.30;55.70;;;;;;5047319;28;20432;-88
2021/04/17 09:08:50;;;;;;;10.43;9.43;;;13.10;56.00;;;;;;5050594;28;20457;-87
2021/04/17 09:11:39;;;;;;;10.80;9.67;;;12.90;56.70;;;;;;5049461;28;20429;-86
2021/04/17 09:14:51;;;;;;;10.87;9.77;;;13.30;56.80;;;;;;5058707;28;20440;-87
2021/04/17 09:17:41;;;;;;;10.70;9.40;;;14.10;56.50;;;;;;5047614;28;20477;-85
2021/04/17 09:20:16;;;;;;;12.13;9.57;;;14.60;54.60;;;;;;5050315;28;20449;-87
2021/04/17 09:22:52;;;;;;;10.83;9.73;;;15.20;53.70;;;;;;5052565;28;21034;-87
2021/04/17 09:25:39;;;;;;;10.47;9.33;;;16.00;52.80;;;;;;5049633;28;20520;-87
2021/04/17 09:28:11;;;;;;;11.40;10.33;;;17.50;51.30;;;;;;5056131;28;20456;-88
2021/04/17 09:31:00;;;;;;;10.53;9.53;;;18.60;48.30;;;;;;5050809;28;20457;-88
2021/04/17 09:33:30;;;;;;;12.40;11.10;;;18.80;46.50;;;;;;5053173;28;20587;-86
2021/04/17 09:35:57;;;;;;;11.00;9.90;;;18.10;46.70;;;;;;5059375;28;20600;-87
2021/04/17 09:38:30;;;;;;;11.40;10.40;;;17.70;47.20;;;;;;5054778;28;20537;-87
2021/04/17 09:40:57;;;;;;;10.87;9.97;;;17.20;47.90;;;;;;5058951;28;20426;-86
2021/04/17 09:46:20;;;;;;;11.80;10.60;;;16.20;49.60;;;;;;5033952;28;20428;-88
2021/04/17 09:48:59;;;;;;;11.40;10.27;;;15.80;50.00;;;;;;5060307;28;20463;-86
2021/04/17 09:51:28;;;;;;;10.70;9.60;;;16.10;50.10;;;;;;5052983;28;20440;-87
2021/04/17 09:54:26;;;;;;;10.97;9.87;;;15.90;49.60;;;;;;5058342;28;20436;-88
2021/04/17 09:56:54;;;;;;;10.73;9.07;;;15.80;49.70;;;;;;5065216;28;20465;-87
2021/04/17 09:59:21;;;;;;;11.23;10.03;;;15.50;50.20;;;;;;5054462;28;20969;-87
2021/04/17 10:01:51;;;;;;;11.73;9.90;;;15.30;50.70;;;;;;5057714;28;20439;-88
2021/04/17 10:04:17;;;;;;;11.57;9.70;;;14.70;50.30;;;;;;5059002;28;20441;-86
2021/04/17 10:06:55;;;;;;;10.23;9.20;;;14.10;51.20;;;;;;5045111;28;20456;-86
2021/04/17 10:09:21;;;;;;;16.90;9.83;;;13.80;52.50;;;;;;5050927;28;20917;-88
2021/04/17 10:11:49;;;;;;;10.17;9.10;;;13.50;53.10;;;;;;5050594;28;20961;-86
2021/04/17 10:14:16;;;;;;;8.77;7.87;;;13.60;53.60;;;;;;5052261;28;20449;-86
2021/04/17 10:16:45;;;;;;;8.67;7.87;;;13.60;53.00;;;;;;5056301;28;20504;-86
2021/04/17 10:19:12;;;;;;;9.13;7.50;;;13.70;52.00;;;;;;5048757;28;20475;-86
2021/04/17 10:21:40;;;;;;;9.20;8.30;;;13.90;52.00;;;;;;5058839;28;20455;-85
2021/04/17 10:24:23;;;;;;;8.87;8.07;;;14.10;51.70;;;;;;5068714;28;20433;-86
2021/04/17 10:26:52;;;;;;;9.97;8.80;;;14.30;51.30;;;;;;5069550;28;20449;-86
2021/04/17 10:29:19;;;;;;;9.30;8.40;;;14.60;51.20;;;;;;5055161;28;20489;-88
2021/04/17 10:31:45;;;;;;;8.40;7.70;;;14.60;50.50;;;;;;5050648;28;20497;-87
2021/04/17 10:34:12;;;;;;;9.90;8.97;;;14.30;51.10;;;;;;5054128;28;20437;-87
2021/04/17 10:36:38;;;;;;;9.67;8.57;;;14.50;51.50;;;;;;5050931;28;20517;-87
2021/04/17 10:39:07;;;;;;;12.83;9.10;;;14.60;51.10;;;;;;5048295;28;20453;-87
2021/04/17 10:41:36;;;;;;;8.97;8.07;;;14.70;50.90;;;;;;5051603;28;20497;-86
2021/04/17 10:44:13;;;;;;;9.13;8.33;;;14.50;50.90;;;;;;5054345;28;20431;-87
2021/04/17 10:46:40;;;;;;;8.80;7.37;;;14.00;51.20;;;;;;5051120;28;20441;-87
2021/04/17 10:49:07;;;;;;;8.17;7.33;;;13.90;51.80;;;;;;5051795;28;20816;-89
2021/04/17 10:51:37;;;;;;;8.97;7.20;;;13.90;51.60;;;;;;5057219;28;20437;-87
2021/04/17 10:54:03;;;;;;;7.23;6.53;;;14.50;51.30;;;;;;5055923;28;20519;-88
2021/04/17 10:56:31;;;;;;;7.93;7.13;;;14.90;50.40;;;;;;5058172;28;20530;-86
2021/04/17 10:59:10;;;;;;;8.47;7.77;;;15.00;49.30;;;;;;5053968;28;21000;-89
2021/04/17 11:01:42;;;;;;;10.70;6.67;;;15.10;49.30;;;;;;5052192;28;20458;-87
2021/04/17 11:04:11;;;;;;;8.10;7.40;;;14.80;49.50;;;;;;5054691;28;20447;-86
2021/04/17 11:06:46;;;;;;;8.47;7.17;;;14.70;49.90;;;;;;5052681;28;20448;-87
2021/04/17 11:09:22;;;;;;;7.60;7.00;;;14.50;50.50;;;;;;5062478;28;20451;-87
2021/04/17 11:12:00;;;;;;;7.57;6.80;;;14.50;50.60;;;;;;5074197;28;20435;-88
2021/04/17 11:14:30;;;;;;;6.77;6.07;;;14.50;50.50;;;;;;5067693;28;20463;-87
2021/04/17 11:16:57;;;;;;;7.57;6.80;;;14.40;50.20;;;;;;5074844;28;20468;-87
2021/04/17 11:19:30;;;;;;;7.47;6.40;;;14.60;50.50;;;;;;5076763;28;20424;-87
2021/04/17 11:22:08;;;;;;;7.70;6.90;;;14.20;50.40;;;;;;5070777;28;20465;-86
2021/04/17 11:24:40;;;;;;;6.77;6.13;;;13.60;50.50;;;;;;5069892;28;20496;-85
2021/04/17 11:27:12;;;;;;;6.50;5.93;;;13.80;51.30;;;;;;5073664;28;20459;-86
2021/04/17 11:33:05;;;;;;;7.20;6.37;;;16.50;48.40;;;;;;5034932;28;20471;-88
2021/04/17 11:35:35;;;;;;;8.73;7.53;;;20.10;45.20;;;;;;5029040;28;20456;-88
2021/04/17 11:38:01;;;;;;;6.10;5.50;;;22.00;40.00;;;;;;5057859;28;20498;-86
2021/04/17 11:40:28;;;;;;;8.07;7.20;;;22.00;38.10;;;;;;5056041;28;20441;-86
2021/04/17 11:43:06;;;;;;;6.53;5.90;;;21.30;38.00;;;;;;5056865;28;20790;-86
2021/04/17 11:45:38;;;;;;;6.20;5.70;;;21.20;38.00;;;;;;5055432;28;20466;-88
2021/04/17 11:48:09;;;;;;;6.63;6.03;;;20.20;38.30;;;;;;5054775;28;20507;-86
2021/04/17 11:50:42;;;;;;;8.77;7.00;;;19.60;39.70;;;;;;5056180;28;20453;-87
2021/04/17 11:53:09;;;;;;;6.57;5.97;;;19.60;40.10;;;;;;5064732;28;20464;-87
2021/04/17 11:55:38;;;;;;;5.10;4.70;;;19.90;39.50;;;;;;5062505;28;20460;-87
2021/04/17 11:58:04;;;;;;;7.73;6.70;;;21.40;38.50;;;;;;5052259;28;20491;-86
2021/04/17 12:00:31;;;;;;;6.97;6.30;;;22.10;37.20;;;;;;5052863;28;20450;-86
2021/04/17 12:03:01;;;;;;;6.53;5.67;;;21.80;36.30;;;;;;5053276;28;20479;-86
2021/04/17 12:05:30;;;;;;;6.43;5.87;;;20.50;36.30;;;;;;5078540;22;20499;-85
2021/04/17 12:08:07;;;;;;;6.40;5.57;;;19.50;37.90;;;;;;5085536;28;20479;-85
2021/04/17 12:10:41;;;;;;;6.00;5.50;;;19.90;39.30;;;;;;5086381;28;20446;-86
2021/04/17 12:13:24;;;;;;;5.57;5.13;;;20.70;37.30;;;;;;5084209;28;20441;-85
2021/04/17 12:15:57;;;;;;;6.00;5.40;;;20.00;37.80;;;;;;5084665;28;20462;-85
2021/04/17 12:18:33;;;;;;;5.70;5.20;;;20.30;39.00;;;;;;5083150;28;20416;-86
2021/04/17 12:21:06;;;;;;;6.13;5.53;;;22.60;36.90;;;;;;5072765;28;20466;-86
2021/04/17 12:23:34;;;;;;;6.43;5.87;;;23.70;34.90;;;;;;5071993;28;20482;-86
2021/04/17 12:26:06;;;;;;;5.07;4.63;;;23.60;33.40;;;;;;5068915;28;20497;-85
2021/04/17 12:28:39;;;;;;;6.40;5.03;;;21.90;34.20;;;;;;5069501;28;20815;-86
2021/04/17 12:31:11;;;;;;;6.00;4.80;;;20.80;35.90;;;;;;5067783;28;20483;-86
2021/04/17 12:33:40;;;;;;;6.23;5.63;;;19.50;37.00;;;;;;5067426;28;20438;-86
2021/04/17 12:36:13;;;;;;;6.10;4.90;;;18.60;38.50;;;;;;5069228;28;20464;-86
2021/04/17 12:38:39;;;;;;;6.00;5.50;;;17.90;39.60;;;;;;5065886;28;20830;-86
2021/04/17 12:41:05;;;;;;;9.80;4.60;;;16.90;40.50;;;;;;5067188;28;20543;-86
2021/04/17 12:43:32;;;;;;;5.67;5.00;;;16.40;41.60;;;;;;5066658;28;20458;-86
2021/04/17 12:45:59;;;;;;;6.33;4.73;;;16.20;42.30;;;;;;5067892;28;20533;-85
2021/04/17 12:48:28;;;;;;;8.90;5.80;;;15.60;42.30;;;;;;5069816;28;20515;-85
2021/04/17 12:50:55;;;;;;;4.00;3.70;;;15.00;43.70;;;;;;5067832;28;20536;-85
2021/04/17 12:53:25;;;;;;;4.83;4.33;;;14.70;45.30;;;;;;5065567;28;20434;-87
2021/04/17 12:55:52;;;;;;;4.20;3.83;;;14.50;45.40;;;;;;5075218;28;20456;-86
2021/04/17 12:58:19;;;;;;;6.90;4.37;;;14.60;45.60;;;;;;5084437;28;20608;-87
2021/04/17 13:00:46;;;;;;;4.60;4.20;;;14.90;45.50;;;;;;5073997;28;20426;-86
2021/04/17 13:03:13;;;;;;;4.90;4.33;;;14.80;44.70;;;;;;5081497;28;20437;-87